Terminal Aerodrome Forecast
Issued by NWS

Current Version | Previous Version | Text Only | Print | Product List | Glossary On
Versions: 1 2 3 4 5 6 7 8 9 10 11 12
965
FTUS46 KSTO 241123
TAFMHR
TAF
KMHR 241123Z 2412/2512 16005KT P6SM BKN100
      TEMPO 2412/2415 BKN015
     FM241800 22008KT P6SM SCT150
     FM250600 15005KT P6SM SCT150=

USA.gov is the U.S. government's official web portal to all federal, state and local government web resources and services.